sensor_id;sensor_type;location;lat;lon;timestamp;pressure;altitude;pressure_sealevel;temperature;humidity
5703;BME280;2876;51.738;10.050;2023-05-16T00:05:40;99074.31;;;11.37;92.94
5703;BME280;2876;51.738;10.050;2023-05-16T03:25:21;99139.44;;;10.86;95.94
5703;BME280;2876;51.738;10.050;2023-05-16T03:48:05;99150.16;;;10.73;96.44
5703;BME280;2876;51.738;10.050;2023-05-16T04:57:33;99217.81;;;10.75;90.12
5703;BME280;2876;51.738;10.050;2023-05-16T07:52:54;99395.44;;;11.11;79.25
5703;BME280;2876;51.738;10.050;2023-05-16T08:53:31;99418.22;;;12.94;60.35
5703;BME280;2876;51.738;10.050;2023-05-16T10:09:38;99424.16;;;14.61;55.16
5703;BME280;2876;51.738;10.050;2023-05-16T10:32:38;99432.59;;;15.87;50.45
5703;BME280;2876;51.738;10.050;2023-05-16T11:08:38;99464.00;;;15.88;43.68
5703;BME280;2876;51.738;10.050;2023-05-16T13:40:16;99464.38;;;21.12;34.55
5703;BME280;2876;51.738;10.050;2023-05-16T14:02:20;99461.84;;;21.52;30.47
5703;BME280;2876;51.738;10.050;2023-05-16T14:08:22;99464.16;;;21.91;30.91
5703;BME280;2876;51.738;10.050;2023-05-16T14:14:24;99460.94;;;20.79;32.19
5703;BME280;2876;51.738;10.050;2023-05-16T14:20:26;99465.41;;;20.53;31.32
5703;BME280;2876;51.738;10.050;2023-05-16T14:26:28;99452.75;;;20.42;33.19
5703;BME280;2876;51.738;10.050;2023-05-16T14:32:30;99473.44;;;20.75;32.32
5703;BME280;2876;51.738;10.050;2023-05-16T14:38:32;99491.91;;;21.00;33.08
5703;BME280;2876;51.738;10.050;2023-05-16T14:44:34;99507.53;;;18.03;37.46
5703;BME280;2876;51.738;10.050;2023-05-16T14:50:36;99490.13;;;16.71;41.77
5703;BME280;2876;51.738;10.050;2023-05-16T14:56:38;99498.06;;;15.77;44.39
5703;BME280;2876;51.738;10.050;2023-05-16T15:02:40;99510.59;;;15.90;45.42
5703;BME280;2876;51.738;10.050;2023-05-16T15:08:42;99514.31;;;16.19;45.95
5703;BME280;2876;51.738;10.050;2023-05-16T15:14:44;99520.16;;;15.74;45.21
5703;BME280;2876;51.738;10.050;2023-05-16T15:20:46;99527.59;;;16.20;46.12
5703;BME280;2876;51.738;10.050;2023-05-16T15:26:48;99538.13;;;19.49;42.29
5703;BME280;2876;51.738;10.050;2023-05-16T15:32:53;99547.03;;;22.27;35.18
5703;BME280;2876;51.738;10.050;2023-05-16T15:38:55;99545.94;;;21.50;34.04
5703;BME280;2876;51.738;10.050;2023-05-16T15:44:57;99541.31;;;21.56;35.29
5703;BME280;2876;51.738;10.050;2023-05-16T15:50:59;99542.69;;;22.62;34.84
5703;BME280;2876;51.738;10.050;2023-05-16T15:57:01;99552.66;;;21.90;33.09
5703;BME280;2876;51.738;10.050;2023-05-16T16:03:03;99544.94;;;19.96;33.34
5703;BME280;2876;51.738;10.050;2023-05-16T16:09:05;99549.03;;;19.33;34.14
5703;BME280;2876;51.738;10.050;2023-05-16T16:15:09;99537.38;;;19.76;33.52
5703;BME280;2876;51.738;10.050;2023-05-16T16:21:11;99542.59;;;20.32;32.98
5703;BME280;2876;51.738;10.050;2023-05-16T16:27:13;99529.97;;;20.52;33.40
5703;BME280;2876;51.738;10.050;2023-05-16T16:33:16;99533.66;;;19.43;35.01
5703;BME280;2876;51.738;10.050;2023-05-16T16:39:18;99550.69;;;19.34;36.89
5703;BME280;2876;51.738;10.050;2023-05-16T16:45:20;99558.69;;;19.40;39.67
5703;BME280;2876;51.738;10.050;2023-05-16T16:51:23;99562.84;;;21.47;35.47
5703;BME280;2876;51.738;10.050;2023-05-16T16:57:25;99563.06;;;20.98;34.42
5703;BME280;2876;51.738;10.050;2023-05-16T17:03:27;99574.88;;;21.57;33.57
5703;BME280;2876;51.738;10.050;2023-05-16T17:09:29;99566.34;;;22.06;33.14
5703;BME280;2876;51.738;10.050;2023-05-16T17:15:31;99572.88;;;21.89;32.63
5703;BME280;2876;51.738;10.050;2023-05-16T17:21:33;99563.81;;;21.89;33.74
5703;BME280;2876;51.738;10.050;2023-05-16T17:27:37;99575.34;;;21.01;34.34
5703;BME280;2876;51.738;10.050;2023-05-16T17:33:39;99578.81;;;19.22;35.12
5703;BME280;2876;51.738;10.050;2023-05-16T17:39:41;99581.38;;;19.51;35.56
5703;BME280;2876;51.738;10.050;2023-05-16T17:45:43;99583.44;;;19.61;34.98
5703;BME280;2876;51.738;10.050;2023-05-16T17:51:51;99580.50;;;19.45;35.95
5703;BME280;2876;51.738;10.050;2023-05-16T17:57:53;99582.22;;;18.62;36.60
5703;BME280;2876;51.738;10.050;2023-05-16T18:03:55;99582.22;;;17.65;37.55
5703;BME280;2876;51.738;10.050;2023-05-16T18:09:57;99578.03;;;17.97;38.69
5703;BME280;2876;51.738;10.050;2023-05-16T18:15:59;99582.06;;;17.31;39.69
5703;BME280;2876;51.738;10.050;2023-05-16T18:22:01;99581.34;;;17.24;40.47
5703;BME280;2876;51.738;10.050;2023-05-16T18:28:07;99588.31;;;16.55;42.13
5703;BME280;2876;51.738;10.050;2023-05-16T18:34:09;99591.28;;;15.56;45.13
5703;BME280;2876;51.738;10.050;2023-05-16T18:40:12;99590.94;;;14.59;48.40
5703;BME280;2876;51.738;10.050;2023-05-16T18:46:15;99594.50;;;13.70;51.40
5703;BME280;2876;51.738;10.050;2023-05-16T18:52:17;99602.91;;;13.15;54.55
5703;BME280;2876;51.738;10.050;2023-05-16T18:58:19;99604.41;;;12.58;57.31
5703;BME280;2876;51.738;10.050;2023-05-16T19:04:21;99604.78;;;12.42;58.93
5703;BME280;2876;51.738;10.050;2023-05-16T19:10:24;99615.31;;;11.76;61.17
5703;BME280;2876;51.738;10.050;2023-05-16T19:16:26;99614.63;;;11.60;61.85
5703;BME280;2876;51.738;10.050;2023-05-16T19:22:28;99630.34;;;11.29;62.85
5703;BME280;2876;51.738;10.050;2023-05-16T19:28:30;99643.22;;;11.12;63.91
5703;BME280;2876;51.738;10.050;2023-05-16T19:34:33;99647.09;;;11.03;64.63
5703;BME280;2876;51.738;10.050;2023-05-16T19:40:37;99653.31;;;10.82;65.84
5703;BME280;2876;51.738;10.050;2023-05-16T19:46:39;99650.19;;;10.57;66.74
5703;BME280;2876;51.738;10.050;2023-05-16T19:52:41;99657.00;;;10.38;66.99
5703;BME280;2876;51.738;10.050;2023-05-16T19:58:43;99668.50;;;10.32;67.52
5703;BME280;2876;51.738;10.050;2023-05-16T20:04:45;99670.38;;;10.53;66.86
5703;BME280;2876;51.738;10.050;2023-05-16T20:10:47;99680.25;;;10.16;68.10
5703;BME280;2876;51.738;10.050;2023-05-16T20:16:49;99675.91;;;10.15;68.43
5703;BME280;2876;51.738;10.050;2023-05-16T20:22:52;99676.78;;;10.01;69.48
5703;BME280;2876;51.738;10.050;2023-05-16T20:28:54;99682.59;;;9.89;70.17
5703;BME280;2876;51.738;10.050;2023-05-16T20:34:56;99683.16;;;10.00;70.22
5703;BME280;2876;51.738;10.050;2023-05-16T20:40:58;99686.38;;;9.80;71.06
5703;BME280;2876;51.738;10.050;2023-05-16T20:47:00;99691.38;;;9.69;71.70
5703;BME280;2876;51.738;10.050;2023-05-16T20:53:02;99694.78;;;9.48;72.64
5703;BME280;2876;51.738;10.050;2023-05-16T20:59:04;99700.81;;;9.50;73.13
5703;BME280;2876;51.738;10.050;2023-05-16T21:05:06;99709.72;;;9.27;73.96
5703;BME280;2876;51.738;10.050;2023-05-16T21:11:28;99714.63;;;9.01;75.83
5703;BME280;2876;51.738;10.050;2023-05-16T21:17:33;99724.13;;;8.80;76.63
5703;BME280;2876;51.738;10.050;2023-05-16T21:23:35;99721.78;;;8.23;79.66
5703;BME280;2876;51.738;10.050;2023-05-16T21:29:37;99720.69;;;8.09;80.26
5703;BME280;2876;51.738;10.050;2023-05-16T21:35:39;99734.31;;;7.75;82.06
5703;BME280;2876;51.738;10.050;2023-05-16T21:41:41;99735.88;;;7.61;82.80
5703;BME280;2876;51.738;10.050;2023-05-16T21:47:44;99742.00;;;7.70;83.53
5703;BME280;2876;51.738;10.050;2023-05-16T21:53:46;99749.59;;;7.42;84.15
5703;BME280;2876;51.738;10.050;2023-05-16T21:59:48;99752.75;;;7.29;85.58
5703;BME280;2876;51.738;10.050;2023-05-16T22:05:52;99757.72;;;7.49;85.46
5703;BME280;2876;51.738;10.050;2023-05-16T22:11:54;99757.75;;;7.41;85.06
5703;BME280;2876;51.738;10.050;2023-05-16T22:17:56;99753.06;;;7.59;86.79
5703;BME280;2876;51.738;10.050;2023-05-16T22:23:58;99756.25;;;7.54;85.72
5703;BME280;2876;51.738;10.050;2023-05-16T22:30:00;99742.22;;;7.60;85.56
5703;BME280;2876;51.738;10.050;2023-05-16T22:36:02;99750.75;;;7.48;85.75
5703;BME280;2876;51.738;10.050;2023-05-16T22:42:04;99749.75;;;7.41;85.75
5703;BME280;2876;51.738;10.050;2023-05-16T22:48:07;99743.25;;;7.10;87.84
5703;BME280;2876;51.738;10.050;2023-05-16T22:54:09;99748.59;;;7.02;88.59
5703;BME280;2876;51.738;10.050;2023-05-16T23:00:11;99751.78;;;7.06;88.11
5703;BME280;2876;51.738;10.050;2023-05-16T23:06:14;99752.94;;;7.20;87.82
5703;BME280;2876;51.738;10.050;2023-05-16T23:12:16;99752.25;;;7.34;87.72
5703;BME280;2876;51.738;10.050;2023-05-16T23:18:18;99769.25;;;7.25;88.70
5703;BME280;2876;51.738;10.050;2023-05-16T23:24:20;99764.41;;;7.45;88.22
5703;BME280;2876;51.738;10.050;2023-05-16T23:30:23;99786.25;;;7.40;87.22
5703;BME280;2876;51.738;10.050;2023-05-16T23:36:25;99773.63;;;7.09;88.16
5703;BME280;2876;51.738;10.050;2023-05-16T23:42:27;99770.59;;;6.96;88.63
5703;BME280;2876;51.738;10.050;2023-05-16T23:48:29;99774.56;;;6.76;90.15
5703;BME280;2876;51.738;10.050;2023-05-16T23:54:32;99778.84;;;6.52;91.19
